Time;durP1;ratioP1;P1;durP2;ratioP2;P2;SDS_P1;SDS_P2;PMS_P1;PMS_P2;Temp;Humidity;BMP_temperature;BMP_pressure;BME280_temperature;BME280_humidity;BME280_pressure;Samples;Min_cycle;Max_cycle;Signal;HPM_P1;HPM_P2
2023/05/30 00:00:47;;;;;;;2.15;1.52;;;23.50;42.40;;;;;;5018268;28;20029;-67
2023/05/30 00:03:13;;;;;;;2.42;1.45;;;23.50;42.40;;;;;;5033314;28;20373;-67
2023/05/30 00:05:38;;;;;;;2.38;1.52;;;23.50;42.40;;;;;;5034493;28;20034;-67
2023/05/30 00:08:04;;;;;;;2.00;1.48;;;23.50;42.40;;;;;;5035040;28;20036;-67
2023/05/30 00:10:29;;;;;;;1.92;1.40;;;23.50;42.50;;;;;;5036404;28;20059;-67
2023/05/30 00:12:55;;;;;;;1.67;1.20;;;23.50;42.50;;;;;;5033342;28;20104;-67
2023/05/30 00:15:21;;;;;;;1.80;1.30;;;23.50;42.50;;;;;;5035589;28;20026;-67
2023/05/30 00:17:47;;;;;;;1.80;1.20;;;23.50;42.50;;;;;;5036099;28;20029;-67
2023/05/30 00:20:13;;;;;;;2.08;1.50;;;23.50;42.50;;;;;;5032800;28;20116;-67
2023/05/30 00:22:41;;;;;;;1.85;1.25;;;23.50;42.50;;;;;;5036068;28;20100;-67
2023/05/30 00:25:09;;;;;;;1.98;1.30;;;23.50;42.50;;;;;;5034773;28;20108;-67
2023/05/30 00:27:35;;;;;;;1.85;1.20;;;23.50;42.50;;;;;;5033579;28;20545;-67
2023/05/30 00:30:00;;;;;;;2.38;1.45;;;23.50;42.60;;;;;;5036606;28;20136;-67
2023/05/30 00:32:26;;;;;;;2.05;1.30;;;23.50;42.60;;;;;;5031800;28;20104;-67
2023/05/30 00:34:51;;;;;;;1.75;1.25;;;23.50;42.50;;;;;;5039334;28;20033;-67
2023/05/30 00:37:17;;;;;;;2.30;1.30;;;23.50;42.50;;;;;;5033212;28;20455;-67
2023/05/30 00:39:43;;;;;;;1.90;1.40;;;23.50;42.60;;;;;;5029963;28;20103;-67
2023/05/30 00:42:08;;;;;;;1.63;1.20;;;23.50;42.60;;;;;;5036837;28;20440;-68
2023/05/30 00:44:34;;;;;;;1.80;1.25;;;23.50;42.60;;;;;;5037563;28;20033;-67
2023/05/30 00:47:00;;;;;;;1.70;1.30;;;23.50;42.60;;;;;;5035176;28;20017;-67
2023/05/30 00:49:27;;;;;;;2.03;1.40;;;23.50;42.60;;;;;;5034768;28;20022;-68
2023/05/30 00:51:53;;;;;;;1.83;1.20;;;23.50;42.60;;;;;;5036135;28;20104;-67
2023/05/30 00:54:20;;;;;;;2.00;1.40;;;23.50;42.60;;;;;;5033738;28;20148;-67
2023/05/30 00:56:46;;;;;;;2.13;1.20;;;23.50;42.70;;;;;;5036597;28;20066;-67
2023/05/30 00:59:12;;;;;;;2.10;1.40;;;23.50;42.70;;;;;;5036658;28;20167;-65
2023/05/30 01:01:38;;;;;;;2.28;1.50;;;23.50;42.70;;;;;;5034930;28;20511;-68
2023/05/30 01:04:04;;;;;;;1.90;1.40;;;23.50;42.70;;;;;;5033441;28;20037;-67
2023/05/30 01:06:30;;;;;;;1.90;1.30;;;23.50;42.70;;;;;;5028086;28;20125;-67
2023/05/30 01:09:02;;;;;;;1.83;1.27;;;23.50;42.70;;;;;;5033675;28;20037;-66
2023/05/30 01:11:46;;;;;;;2.58;1.45;;;23.50;42.70;;;;;;5038900;28;20468;-66
2023/05/30 01:14:40;;;;;;;1.58;1.27;;;23.50;42.70;;;;;;5039166;28;20496;-66
2023/05/30 01:17:30;;;;;;;2.08;1.40;;;23.50;42.70;;;;;;5004192;28;20395;-66
2023/05/30 01:20:14;;;;;;;1.85;1.30;;;23.50;42.70;;;;;;5035740;28;20032;-67
2023/05/30 01:23:16;;;;;;;2.17;1.40;;;23.50;42.70;;;;;;5037601;28;20041;-66
2023/05/30 01:25:44;;;;;;;2.35;1.52;;;23.50;42.70;;;;;;5036635;28;20068;-66
2023/05/30 01:28:21;;;;;;;1.92;1.40;;;23.40;42.70;;;;;;5037348;28;20040;-66
2023/05/30 01:30:49;;;;;;;2.50;1.40;;;23.40;42.70;;;;;;5034235;28;20034;-66
2023/05/30 01:33:17;;;;;;;2.05;1.35;;;23.40;42.70;;;;;;5032279;28;20389;-66
2023/05/30 01:35:46;;;;;;;1.77;1.23;;;23.50;42.80;;;;;;5033696;28;20460;-66
2023/05/30 01:38:13;;;;;;;2.20;1.40;;;23.40;42.70;;;;;;5017551;28;20068;-64
2023/05/30 01:40:39;;;;;;;1.60;1.27;;;23.40;42.70;;;;;;5035899;28;20485;-65
2023/05/30 01:43:34;;;;;;;1.83;1.23;;;23.50;42.80;;;;;;5037136;28;20032;-66
2023/05/30 01:46:33;;;;;;;1.67;1.30;;;23.40;42.70;;;;;;5033411;28;20033;-66
2023/05/30 01:49:20;;;;;;;2.22;1.48;;;23.40;42.70;;;;;;5037400;28;20396;-66
2023/05/30 01:51:55;;;;;;;2.50;1.45;;;23.50;42.80;;;;;;5037130;28;20037;-66
2023/05/30 01:54:22;;;;;;;1.45;1.17;;;23.40;42.80;;;;;;5039026;28;20471;-66
2023/05/30 01:57:00;;;;;;;2.08;1.40;;;23.40;42.80;;;;;;5033832;28;20358;-66
2023/05/30 01:59:27;;;;;;;1.90;1.40;;;23.40;42.80;;;;;;5005846;28;20459;-66
2023/05/30 02:01:56;;;;;;;1.70;1.20;;;23.40;42.80;;;;;;5037246;28;20395;-66
2023/05/30 02:04:23;;;;;;;;;;;23.40;42.80;;;;;;5037488;28;20105;-66
2023/05/30 02:06:49;;;;;;;1.90;1.30;;;23.40;42.80;;;;;;5039297;28;20399;-66
2023/05/30 02:09:15;;;;;;;1.70;1.30;;;23.40;42.80;;;;;;5019611;28;20032;-66
2023/05/30 02:11:40;;;;;;;1.77;1.25;;;23.40;42.80;;;;;;5040731;28;20025;-66
2023/05/30 02:14:07;;;;;;;1.70;1.20;;;23.40;42.80;;;;;;5038847;28;20032;-66
2023/05/30 02:16:32;;;;;;;1.83;1.30;;;23.40;42.80;;;;;;5035465;28;20096;-66
2023/05/30 02:18:58;;;;;;;2.03;1.50;;;23.40;42.90;;;;;;5033698;28;20473;-66
2023/05/30 02:21:24;;;;;;;1.58;1.20;;;23.40;42.90;;;;;;5037832;28;20076;-66
2023/05/30 02:23:50;;;;;;;1.63;1.30;;;23.40;42.90;;;;;;5036731;28;20520;-66
2023/05/30 02:26:15;;;;;;;1.88;1.20;;;23.40;42.90;;;;;;5035412;28;20049;-66
2023/05/30 02:28:41;;;;;;;1.77;1.15;;;23.40;42.90;;;;;;5034441;28;20060;-66
2023/05/30 02:31:07;;;;;;;1.90;1.30;;;23.40;42.90;;;;;;5034010;28;20473;-66
2023/05/30 02:33:33;;;;;;;1.92;1.27;;;23.40;42.90;;;;;;5035041;28;20083;-66
2023/05/30 02:35:58;;;;;;;1.60;1.20;;;23.40;43.00;;;;;;5034179;28;20038;-66
2023/05/30 02:38:25;;;;;;;1.48;1.10;;;23.40;43.00;;;;;;5035077;28;20026;-66
2023/05/30 02:40:50;;;;;;;1.80;1.25;;;23.40;43.00;;;;;;5014922;28;20376;-67
2023/05/30 02:43:16;;;;;;;1.85;1.40;;;23.40;43.00;;;;;;5030953;28;20104;-66
2023/05/30 02:45:41;;;;;;;1.70;1.20;;;23.40;43.00;;;;;;5031796;28;20090;-66
2023/05/30 02:48:07;;;;;;;1.83;1.25;;;23.40;43.00;;;;;;5016112;28;20038;-66
2023/05/30 02:50:33;;;;;;;1.83;1.20;;;23.40;43.00;;;;;;5033523;28;20535;-66
2023/05/30 02:52:58;;;;;;;1.83;1.30;;;23.30;43.00;;;;;;5034887;28;20075;-66
2023/05/30 02:55:24;;;;;;;1.73;1.20;;;23.30;43.00;;;;;;5031727;28;20029;-66
2023/05/30 02:57:50;;;;;;;1.63;1.20;;;23.40;43.00;;;;;;5033582;28;20121;-66
2023/05/30 03:00:16;;;;;;;1.75;1.17;;;23.30;43.00;;;;;;5033859;28;20048;-66
2023/05/30 03:02:42;;;;;;;1.55;1.20;;;23.30;43.00;;;;;;5032519;28;20066;-66
2023/05/30 03:05:10;;;;;;;1.80;1.20;;;23.40;43.00;;;;;;5033646;28;20025;-66
2023/05/30 03:07:36;;;;;;;2.70;1.40;;;23.30;43.00;;;;;;5017989;28;20029;-66
2023/05/30 03:10:03;;;;;;;1.73;1.30;;;23.30;43.00;;;;;;5033680;28;20460;-66
2023/05/30 03:12:29;;;;;;;2.15;1.30;;;23.40;43.10;;;;;;5014951;28;20029;-66
2023/05/30 03:14:54;;;;;;;1.75;1.30;;;23.40;43.10;;;;;;5033848;28;20025;-66
2023/05/30 03:17:21;;;;;;;2.30;1.60;;;23.30;43.00;;;;;;5020834;28;20032;-66
2023/05/30 03:19:47;;;;;;;1.95;1.40;;;23.30;43.10;;;;;;5035150;28;20025;-66
2023/05/30 03:22:12;;;;;;;2.03;1.30;;;23.30;43.10;;;;;;5033449;28;20032;-66
2023/05/30 03:24:39;;;;;;;1.80;1.30;;;23.30;43.10;;;;;;5034848;28;20017;-66
2023/05/30 03:27:05;;;;;;;1.70;1.20;;;23.30;43.10;;;;;;5036806;28;20469;-66
2023/05/30 03:29:31;;;;;;;2.08;1.30;;;23.40;43.10;;;;;;5038894;28;20082;-66
2023/05/30 03:31:57;;;;;;;1.40;1.08;;;23.30;43.10;;;;;;5039762;28;20136;-66
2023/05/30 03:34:22;;;;;;;1.95;1.30;;;23.30;43.10;;;;;;5037719;28;20147;-66
2023/05/30 03:36:52;;;;;;;1.88;1.20;;;23.30;43.10;;;;;;5038987;28;20108;-66
2023/05/30 03:39:21;;;;;;;1.70;1.13;;;23.30;43.10;;;;;;5036855;28;20055;-66
2023/05/30 03:41:47;;;;;;;2.03;1.38;;;23.30;43.10;;;;;;5036122;28;20413;-66
2023/05/30 03:44:13;;;;;;;1.83;1.20;;;23.30;43.10;;;;;;5021521;28;20048;-66
2023/05/30 03:46:38;;;;;;;1.52;1.17;;;23.30;43.10;;;;;;5019769;28;20192;-66
2023/05/30 03:49:04;;;;;;;2.30;1.30;;;23.30;43.20;;;;;;5038143;28;20235;-65
2023/05/30 03:51:30;;;;;;;1.85;1.30;;;23.30;43.20;;;;;;5035554;28;20389;-66
2023/05/30 03:53:56;;;;;;;1.60;1.20;;;23.30;43.20;;;;;;5039157;28;20036;-66
2023/05/30 03:56:22;;;;;;;1.90;1.20;;;23.30;43.20;;;;;;5036451;28;20033;-66
2023/05/30 03:58:47;;;;;;;1.50;1.00;;;23.30;43.20;;;;;;5039193;28;20025;-66
2023/05/30 04:01:13;;;;;;;1.70;1.15;;;23.30;43.20;;;;;;5036938;28;20032;-66
2023/05/30 04:03:39;;;;;;;1.75;1.30;;;23.30;43.20;;;;;;5019075;28;20234;-66
2023/05/30 04:06:08;;;;;;;1.50;1.20;;;23.30;43.20;;;;;;5039136;28;20017;-66
2023/05/30 04:08:36;;;;;;;1.40;1.20;;;23.30;43.20;;;;;;5038310;28;20036;-66
2023/05/30 04:11:02;;;;;;;1.77;1.20;;;23.20;43.20;;;;;;5035617;28;20029;-66
2023/05/30 04:13:28;;;;;;;1.67;1.20;;;23.30;43.20;;;;;;5034478;28;20387;-66
2023/05/30 04:15:54;;;;;;;1.60;1.08;;;23.30;43.30;;;;;;5037222;28;20033;-66
2023/05/30 04:18:20;;;;;;;1.70;1.30;;;23.20;43.20;;;;;;5037011;28;20048;-66
2023/05/30 04:20:45;;;;;;;1.63;1.17;;;23.30;43.30;;;;;;5037013;28;20456;-66
2023/05/30 04:23:11;;;;;;;1.48;1.10;;;23.20;43.20;;;;;;5021310;28;20112;-66
2023/05/30 04:25:37;;;;;;;1.60;1.20;;;23.20;43.20;;;;;;5033826;28;20361;-66
2023/05/30 04:28:08;;;;;;;1.92;1.33;;;23.20;43.20;;;;;;5036856;28;20036;-66
2023/05/30 04:30:34;;;;;;;1.70;1.13;;;23.20;43.20;;;;;;5018887;28;20032;-66
2023/05/30 04:32:59;;;;;;;1.33;1.00;;;23.20;43.20;;;;;;5031710;28;20025;-66
2023/05/30 04:35:25;;;;;;;2.53;1.40;;;23.20;43.30;;;;;;5036645;28;20449;-66
2023/05/30 04:37:53;;;;;;;2.08;1.42;;;23.20;43.30;;;;;;5003442;28;20080;-66
2023/05/30 04:40:19;;;;;;;1.67;1.20;;;23.20;43.30;;;;;;5002053;28;20048;-66
2023/05/30 04:42:51;;;;;;;2.20;1.20;;;23.20;43.30;;;;;;5036610;28;20060;-66
2023/05/30 04:45:19;;;;;;;1.50;1.10;;;23.20;43.30;;;;;;5034076;28;20073;-66
2023/05/30 04:47:45;;;;;;;1.77;1.20;;;23.20;43.30;;;;;;5037176;28;20057;-66
2023/05/30 04:50:15;;;;;;;2.03;1.35;;;23.20;43.30;;;;;;5037463;28;20075;-66
2023/05/30 04:52:44;;;;;;;1.60;1.10;;;23.20;43.30;;;;;;5038723;28;20887;-66
2023/05/30 04:55:13;;;;;;;1.42;1.15;;;23.20;43.30;;;;;;5036612;28;20103;-66
2023/05/30 04:57:38;;;;;;;1.70;1.20;;;23.20;43.30;;;;;;5034150;28;20036;-66
2023/05/30 05:00:13;;;;;;;1.50;1.20;;;23.20;43.40;;;;;;5037048;28;20552;-66
2023/05/30 05:02:40;;;;;;;1.70;1.20;;;23.20;43.40;;;;;;5034963;28;20160;-66
2023/05/30 05:05:06;;;;;;;2.17;1.20;;;23.20;43.40;;;;;;5032990;28;20025;-66
2023/05/30 05:07:32;;;;;;;1.73;1.15;;;23.20;43.40;;;;;;5038019;28;20813;-66
2023/05/30 05:09:57;;;;;;;2.20;1.30;;;23.20;43.40;;;;;;5035230;28;20029;-66
2023/05/30 05:12:23;;;;;;;1.33;1.08;;;23.20;43.40;;;;;;5034696;28;20100;-66
2023/05/30 05:14:50;;;;;;;1.80;1.27;;;23.20;43.40;;;;;;5034884;28;20025;-66
2023/05/30 05:17:15;;;;;;;1.90;1.30;;;23.20;43.40;;;;;;5036821;28;20546;-64
2023/05/30 05:19:41;;;;;;;1.40;1.00;;;23.20;43.40;;;;;;5035666;28;20128;-66
2023/05/30 05:22:07;;;;;;;1.83;1.33;;;23.20;43.50;;;;;;5034399;28;20021;-66
2023/05/30 05:24:32;;;;;;;2.05;1.30;;;23.10;43.40;;;;;;5036288;28;20070;-66
2023/05/30 05:26:58;;;;;;;1.42;1.10;;;23.10;43.40;;;;;;5032669;28;20460;-66
2023/05/30 05:29:24;;;;;;;1.60;1.20;;;23.20;43.50;;;;;;5031536;28;20028;-66
2023/05/30 05:31:50;;;;;;;2.00;1.20;;;23.20;43.50;;;;;;5033042;28;20500;-66
2023/05/30 05:34:16;;;;;;;1.65;1.30;;;23.10;43.50;;;;;;5021885;28;20021;-66
2023/05/30 05:36:44;;;;;;;1.73;1.20;;;23.20;43.40;;;;;;5035625;28;20488;-66
2023/05/30 05:39:10;;;;;;;2.22;1.20;;;23.20;43.50;;;;;;5018589;28;20021;-66
2023/05/30 05:41:36;;;;;;;1.60;1.10;;;23.10;43.50;;;;;;5035759;28;20043;-66
2023/05/30 05:44:01;;;;;;;1.77;1.15;;;23.10;43.50;;;;;;5033405;28;20120;-66
2023/05/30 05:46:27;;;;;;;1.77;1.20;;;23.10;43.50;;;;;;5034487;28;20039;-66
2023/05/30 05:48:56;;;;;;;2.05;1.20;;;23.10;43.50;;;;;;5017450;28;20119;-66
2023/05/30 05:51:21;;;;;;;1.70;1.20;;;23.10;43.50;;;;;;5034929;28;20033;-66
2023/05/30 05:53:47;;;;;;;1.58;1.20;;;23.10;43.50;;;;;;5034031;28;20049;-66
2023/05/30 05:56:13;;;;;;;1.40;1.20;;;23.10;43.50;;;;;;5033654;28;20072;-66
2023/05/30 05:58:38;;;;;;;1.75;1.27;;;23.10;43.50;;;;;;5036861;28;20025;-66
2023/05/30 06:01:04;;;;;;;1.45;1.10;;;23.10;43.50;;;;;;5033864;28;20036;-66
2023/05/30 06:03:30;;;;;;;1.55;1.15;;;23.10;43.50;;;;;;5037835;28;20029;-66
2023/05/30 06:05:56;;;;;;;1.48;1.20;;;23.10;43.50;;;;;;5036894;28;20087;-66
2023/05/30 06:08:25;;;;;;;1.58;1.15;;;23.10;43.50;;;;;;5035644;28;20113;-66
2023/05/30 06:10:53;;;;;;;1.87;1.40;;;23.10;43.60;;;;;;5014483;28;20072;-66
2023/05/30 06:13:18;;;;;;;1.75;1.30;;;23.10;43.60;;;;;;5036137;28;20268;-66
2023/05/30 06:15:44;;;;;;;1.48;1.10;;;23.10;43.60;;;;;;5037936;28;20043;-66
2023/05/30 06:18:10;;;;;;;1.50;1.20;;;23.10;43.60;;;;;;5020599;28;20102;-66
2023/05/30 06:20:38;;;;;;;1.60;1.10;;;23.10;43.60;;;;;;5036007;28;20025;-66
2023/05/30 06:23:04;;;;;;;1.60;1.10;;;23.10;43.60;;;;;;5038500;28;20025;-66
2023/05/30 06:25:30;;;;;;;1.70;1.10;;;23.10;43.60;;;;;;5035127;28;20036;-66
2023/05/30 06:27:59;;;;;;;1.80;1.20;;;23.10;43.60;;;;;;5032960;28;20380;-66
2023/05/30 06:30:25;;;;;;;1.40;1.10;;;23.10;43.60;;;;;;5017011;28;20030;-66
2023/05/30 06:32:50;;;;;;;1.58;1.20;;;23.10;43.60;;;;;;5035665;28;20036;-66
2023/05/30 06:35:16;;;;;;;1.60;1.15;;;23.10;43.60;;;;;;5021092;28;20365;-66
2023/05/30 06:37:42;;;;;;;2.08;1.30;;;23.10;43.70;;;;;;5034140;28;20030;-66
2023/05/30 06:40:08;;;;;;;1.42;1.17;;;23.10;43.70;;;;;;5031624;28;20544;-66
2023/05/30 06:42:34;;;;;;;1.40;1.08;;;23.10;43.70;;;;;;5016915;28;20121;-66
2023/05/30 06:45:00;;;;;;;1.38;1.05;;;23.10;43.70;;;;;;5035599;28;20106;-66
2023/05/30 06:47:26;;;;;;;2.28;1.10;;;23.10;43.70;;;;;;5033899;28;20104;-66
2023/05/30 06:49:51;;;;;;;2.00;1.40;;;23.10;43.70;;;;;;5031599;28;20108;-66
2023/05/30 06:52:17;;;;;;;1.60;1.30;;;23.10;43.70;;;;;;5034393;28;20029;-66
2023/05/30 06:54:42;;;;;;;1.55;1.23;;;23.10;43.70;;;;;;5022917;28;20056;-66
2023/05/30 06:57:11;;;;;;;2.03;1.30;;;23.00;43.70;;;;;;5039431;28;20033;-66
2023/05/30 06:59:38;;;;;;;1.58;1.27;;;23.10;43.70;;;;;;5037480;28;20041;-66
2023/05/30 07:02:04;;;;;;;1.73;1.20;;;23.10;43.70;;;;;;5037808;28;20036;-66
2023/05/30 07:04:30;;;;;;;2.10;1.33;;;23.10;43.80;;;;;;5035527;28;20774;-66
2023/05/30 07:06:58;;;;;;;1.50;1.08;;;23.00;43.70;;;;;;5035914;28;20029;-66
2023/05/30 07:09:25;;;;;;;2.53;1.33;;;23.00;43.70;;;;;;5037037;28;20480;-66
2023/05/30 07:11:51;;;;;;;2.90;1.15;;;23.10;43.80;;;;;;5021064;28;20030;-66
2023/05/30 07:14:17;;;;;;;1.80;1.25;;;23.10;43.80;;;;;;5037720;28;20583;-66
2023/05/30 07:16:44;;;;;;;1.80;1.30;;;23.10;43.80;;;;;;5036325;28;20030;-66
2023/05/30 07:19:10;;;;;;;2.22;1.30;;;23.00;43.80;;;;;;5019258;28;20029;-66
2023/05/30 07:21:36;;;;;;;1.85;1.20;;;23.10;43.80;;;;;;5018720;28;20028;-66
2023/05/30 07:24:02;;;;;;;1.70;1.10;;;23.00;43.80;;;;;;5037555;28;20021;-66
2023/05/30 07:26:27;;;;;;;1.92;1.33;;;23.10;43.80;;;;;;5038395;28;20022;-66
2023/05/30 07:28:53;;;;;;;1.65;1.20;;;23.00;43.80;;;;;;5038223;28;20032;-67
2023/05/30 07:31:19;;;;;;;1.83;1.23;;;23.00;43.80;;;;;;5022985;28;20491;-66
2023/05/30 07:33:44;;;;;;;2.25;1.40;;;23.00;43.80;;;;;;5035643;28;20052;-66
2023/05/30 07:36:11;;;;;;;3.15;1.30;;;23.00;43.80;;;;;;5020247;28;20034;-66
2023/05/30 07:38:37;;;;;;;1.92;1.27;;;23.00;43.80;;;;;;5039747;28;20457;-66
2023/05/30 07:41:03;;;;;;;1.90;1.30;;;23.00;43.80;;;;;;5036972;28;20041;-66
2023/05/30 07:43:28;;;;;;;2.03;1.30;;;23.00;43.80;;;;;;5038280;28;20029;-66
2023/05/30 07:45:54;;;;;;;3.15;1.35;;;23.00;43.80;;;;;;5037391;28;20025;-66
2023/05/30 07:48:19;;;;;;;1.90;1.30;;;23.00;43.80;;;;;;5037570;28;20029;-66
2023/05/30 07:50:45;;;;;;;1.85;1.25;;;23.00;43.80;;;;;;5020740;28;20045;-66
2023/05/30 07:53:11;;;;;;;2.55;1.50;;;23.10;43.90;;;;;;5037838;28;20026;-66
2023/05/30 07:55:36;;;;;;;1.88;1.30;;;23.00;43.90;;;;;;5020843;28;20105;-66
2023/05/30 07:58:04;;;;;;;2.70;1.50;;;23.00;43.80;;;;;;5037619;28;20045;-66
2023/05/30 08:00:30;;;;;;;1.90;1.30;;;23.00;43.90;;;;;;5037808;28;20086;-66
2023/05/30 08:02:56;;;;;;;2.60;1.50;;;23.00;43.80;;;;;;5034912;28;20022;-66
2023/05/30 08:05:21;;;;;;;1.98;1.40;;;23.00;43.90;;;;;;5016510;28;20423;-65
2023/05/30 08:07:47;;;;;;;3.40;1.60;;;23.00;43.90;;;;;;5020796;28;20041;-66
2023/05/30 08:10:12;;;;;;;1.95;1.38;;;23.00;44.00;;;;;;5036428;28;20025;-65
2023/05/30 08:12:38;;;;;;;3.00;1.45;;;23.00;44.10;;;;;;5020151;28;20392;-66
2023/05/30 08:15:04;;;;;;;2.50;1.85;;;23.00;44.10;;;;;;5037304;28;20786;-65
2023/05/30 08:17:30;;;;;;;2.90;1.48;;;23.00;44.10;;;;;;5020632;28;20484;-65
2023/05/30 08:19:56;;;;;;;2.40;1.35;;;23.00;44.10;;;;;;5034980;28;20025;-65
2023/05/30 08:22:23;;;;;;;2.05;1.40;;;23.10;44.10;;;;;;5032608;28;20392;-65
2023/05/30 08:25:00;;;;;;;2.17;1.67;;;23.10;44.20;;;;;;5017029;28;20490;-66
2023/05/30 08:27:26;;;;;;;1.80;1.30;;;23.10;44.20;;;;;;5037433;28;20147;-65
2023/05/30 08:29:53;;;;;;;2.33;1.55;;;23.10;44.10;;;;;;5036444;28;20152;-66
2023/05/30 08:32:19;;;;;;;2.17;1.40;;;23.10;44.10;;;;;;5020679;28;20377;-65
2023/05/30 08:34:46;;;;;;;2.33;1.40;;;23.10;44.10;;;;;;5037019;28;20020;-65
2023/05/30 08:37:12;;;;;;;1.70;1.20;;;23.10;44.10;;;;;;5012243;28;20491;-66
2023/05/30 08:39:38;;;;;;;2.40;1.50;;;23.10;44.20;;;;;;5035550;28;20030;-66
2023/05/30 08:42:05;;;;;;;2.35;1.45;;;23.10;44.10;;;;;;5030796;28;20041;-65
2023/05/30 08:44:31;;;;;;;1.92;1.50;;;23.10;44.10;;;;;;5036488;28;20155;-65
2023/05/30 08:46:57;;;;;;;2.60;1.55;;;23.10;44.10;;;;;;5016284;28;20515;-65
2023/05/30 08:49:26;;;;;;;2.33;1.40;;;23.10;44.10;;;;;;5038707;28;20025;-65
2023/05/30 08:51:53;;;;;;;2.22;1.40;;;23.10;44.10;;;;;;5032265;28;20041;-65
2023/05/30 08:54:32;;;;;;;2.78;1.40;;;23.10;44.10;;;;;;5035190;28;20030;-66
2023/05/30 08:57:22;;;;;;;2.38;1.20;;;23.10;44.10;;;;;;5035550;28;20021;-64
2023/05/30 08:59:50;;;;;;;3.22;1.50;;;23.10;44.10;;;;;;5021080;28;20500;-66
2023/05/30 09:02:20;;;;;;;1.98;1.42;;;23.10;44.10;;;;;;5036374;28;20029;-65
2023/05/30 09:04:48;;;;;;;1.92;1.30;;;23.10;44.60;;;;;;5030069;28;20456;-66
2023/05/30 09:07:15;;;;;;;2.00;1.35;;;23.10;44.10;;;;;;5036317;28;20551;-66
2023/05/30 09:09:49;;;;;;;2.25;1.40;;;23.10;44.10;;;;;;5036435;28;20022;-66
2023/05/30 09:12:15;;;;;;;2.17;1.40;;;23.10;44.60;;;;;;5035594;28;20039;-65
2023/05/30 09:14:41;;;;;;;2.03;1.27;;;23.10;44.10;;;;;;5034508;28;20057;-66
2023/05/30 09:17:07;;;;;;;2.47;1.42;;;23.20;44.20;;;;;;5018948;28;20021;-66
2023/05/30 09:19:35;;;;;;;2.80;1.35;;;23.10;44.10;;;;;;5015438;28;20341;-65
2023/05/30 09:22:01;;;;;;;2.38;1.45;;;23.10;44.10;;;;;;5034714;28;20040;-65
2023/05/30 09:24:54;;;;;;;2.20;1.45;;;23.20;44.20;;;;;;5030992;28;20055;-64
2023/05/30 09:27:20;;;;;;;2.95;1.80;;;23.10;44.30;;;;;;5035203;28;20067;-64
2023/05/30 09:29:45;;;;;;;2.40;1.50;;;23.20;44.40;;;;;;5018917;28;20463;-65
2023/05/30 09:32:11;;;;;;;2.08;1.45;;;23.20;44.50;;;;;;5033548;28;20021;-65
2023/05/30 09:34:37;;;;;;;2.25;1.63;;;23.20;44.50;;;;;;5033851;28;20036;-66
2023/05/30 09:37:04;;;;;;;1.88;1.35;;;23.20;44.50;;;;;;5032887;28;20053;-66
2023/05/30 09:39:30;;;;;;;1.92;1.17;;;23.20;44.50;;;;;;5037198;28;20064;-67
2023/05/30 09:41:57;;;;;;;2.00;1.30;;;23.20;44.60;;;;;;5036852;28;20477;-66
2023/05/30 09:44:22;;;;;;;1.50;1.20;;;23.30;44.60;;;;;;5031446;28;20400;-66
2023/05/30 09:46:57;;;;;;;2.58;1.35;;;23.30;44.70;;;;;;5032310;28;20096;-67
2023/05/30 09:49:25;;;;;;;2.72;1.40;;;23.30;44.80;;;;;;5014720;28;20025;-67
2023/05/30 09:51:51;;;;;;;1.92;1.30;;;23.30;44.70;;;;;;5030705;28;20036;-67
2023/05/30 09:54:19;;;;;;;1.98;1.23;;;23.30;44.70;;;;;;5031443;28;20098;-67
2023/05/30 09:56:45;;;;;;;2.55;1.20;;;23.30;44.70;;;;;;5018996;28;20133;-67
2023/05/30 09:59:13;;;;;;;2.15;1.40;;;23.40;44.70;;;;;;5020021;28;20116;-67
2023/05/30 10:01:44;;;;;;;1.60;1.20;;;23.40;44.70;;;;;;5017278;28;20030;-67
2023/05/30 10:04:16;;;;;;;3.10;1.30;;;23.30;44.70;;;;;;5034758;28;20525;-66
2023/05/30 10:06:53;;;;;;;2.50;1.50;;;23.40;44.70;;;;;;5035001;28;20109;-66
2023/05/30 10:09:23;;;;;;;2.45;1.60;;;23.40;44.70;;;;;;5037771;28;20559;-66
2023/05/30 10:11:49;;;;;;;2.30;1.55;;;23.40;44.70;;;;;;5034108;28;20075;-66
2023/05/30 10:14:15;;;;;;;2.35;1.48;;;23.40;44.70;;;;;;5003138;28;20052;-66
2023/05/30 10:16:46;;;;;;;1.90;1.35;;;23.40;44.70;;;;;;5035079;28;20037;-66
2023/05/30 10:19:16;;;;;;;2.28;1.50;;;23.40;44.70;;;;;;5019221;28;20113;-66
2023/05/30 10:21:44;;;;;;;1.95;1.30;;;23.40;44.70;;;;;;5034344;28;20033;-67
2023/05/30 10:24:14;;;;;;;2.13;1.35;;;23.40;44.70;;;;;;5035434;28;20060;-67
2023/05/30 10:26:53;;;;;;;2.28;1.58;;;23.40;44.70;;;;;;5039846;28;20075;-67
2023/05/30 10:29:22;;;;;;;2.13;1.40;;;23.40;44.80;;;;;;5036099;28;20045;-66
2023/05/30 10:31:52;;;;;;;2.75;1.50;;;23.40;44.80;;;;;;5040267;28;20087;-67
2023/05/30 10:34:21;;;;;;;1.95;1.40;;;23.40;44.70;;;;;;5039107;28;20032;-67
2023/05/30 10:36:47;;;;;;;2.45;1.42;;;23.40;44.80;;;;;;5015760;28;20123;-67
2023/05/30 10:39:33;;;;;;;2.10;1.27;;;23.40;44.70;;;;;;5040518;28;20048;-67
2023/05/30 10:42:18;;;;;;;2.65;1.40;;;23.40;44.80;;;;;;5038721;28;20045;-67
2023/05/30 10:44:58;;;;;;;1.98;1.35;;;23.40;44.70;;;;;;5037996;28;20025;-66
2023/05/30 10:47:26;;;;;;;1.92;1.40;;;23.40;44.70;;;;;;5039727;28;20053;-66
2023/05/30 10:49:56;;;;;;;2.63;1.50;;;23.40;44.70;;;;;;5022891;28;20510;-67
2023/05/30 10:52:32;;;;;;;2.00;1.35;;;23.40;44.70;;;;;;5037495;28;20029;-66
2023/05/30 10:54:58;;;;;;;1.75;1.30;;;23.50;44.80;;;;;;5039002;28;20113;-66
2023/05/30 10:57:28;;;;;;;2.13;1.40;;;23.40;44.80;;;;;;5024323;28;20503;-67
2023/05/30 11:00:16;;;;;;;2.13;1.50;;;23.50;44.80;;;;;;5019496;28;20026;-66
2023/05/30 11:02:43;;;;;;;1.95;1.40;;;23.50;44.80;;;;;;5038991;28;20393;-67
2023/05/30 11:05:10;;;;;;;1.92;1.40;;;23.40;44.80;;;;;;5039242;28;20017;-66
2023/05/30 11:07:37;;;;;;;2.53;1.40;;;23.40;44.80;;;;;;5038661;28;20376;-67
2023/05/30 11:10:10;;;;;;;2.33;1.48;;;23.40;44.80;;;;;;5036858;28;20119;-66
2023/05/30 11:12:42;;;;;;;2.15;1.40;;;23.40;44.80;;;;;;5017390;28;20116;-66
2023/05/30 11:15:13;;;;;;;2.42;1.42;;;23.50;44.80;;;;;;5037903;28;20034;-66
2023/05/30 11:17:39;;;;;;;3.45;1.70;;;23.40;44.80;;;;;;5033788;28;20034;-67
2023/05/30 11:20:16;;;;;;;3.90;1.40;;;23.40;44.90;;;;;;5037216;28;20355;-66
2023/05/30 11:23:02;;;;;;;2.08;1.40;;;23.50;44.90;;;;;;5034336;28;20021;-66
2023/05/30 11:25:32;;;;;;;2.15;1.45;;;23.40;44.80;;;;;;5001766;28;20111;-67
2023/05/30 11:28:04;;;;;;;2.58;1.55;;;23.50;44.80;;;;;;5021546;28;20052;-67
2023/05/30 11:30:37;;;;;;;2.92;1.40;;;23.50;44.90;;;;;;5034445;28;20291;-66
2023/05/30 11:33:04;;;;;;;3.05;1.60;;;23.50;44.90;;;;;;5037285;28;20088;-65
2023/05/30 11:35:31;;;;;;;2.67;1.50;;;23.50;44.90;;;;;;5020847;28;20049;-66
2023/05/30 11:37:57;;;;;;;2.45;1.50;;;23.50;44.90;;;;;;5037438;28;20465;-66
2023/05/30 11:40:24;;;;;;;2.20;1.50;;;23.50;44.80;;;;;;5040179;28;20116;-66
2023/05/30 11:42:51;;;;;;;2.40;1.50;;;23.50;44.90;;;;;;5033661;28;20103;-66
2023/05/30 11:45:18;;;;;;;2.83;1.55;;;23.50;44.90;;;;;;5018886;28;20032;-66
2023/05/30 11:47:45;;;;;;;3.15;1.60;;;23.50;44.90;;;;;;5038177;28;20076;-66
2023/05/30 11:50:11;;;;;;;2.20;1.67;;;23.50;44.80;;;;;;5034633;28;20029;-66
2023/05/30 11:52:40;;;;;;;3.42;1.70;;;23.50;44.80;;;;;;5034887;28;20021;-66
2023/05/30 11:55:06;;;;;;;3.75;1.60;;;23.50;44.80;;;;;;5019662;28;20559;-65
2023/05/30 11:57:32;;;;;;;2.60;1.40;;;23.50;44.80;;;;;;5037979;28;20087;-67
2023/05/30 11:59:58;;;;;;;3.25;1.40;;;23.50;44.90;;;;;;5035826;28;20101;-66
2023/05/30 12:02:27;;;;;;;2.63;1.55;;;23.60;45.00;;;;;;5036677;28;20170;-67
2023/05/30 12:05:03;;;;;;;3.40;1.50;;;23.60;44.90;;;;;;5020747;28;20473;-65
2023/05/30 12:07:29;;;;;;;2.60;1.60;;;23.60;44.90;;;;;;5017860;28;20057;-65
2023/05/30 12:09:55;;;;;;;1.88;1.38;;;23.60;44.90;;;;;;5039065;28;20044;-65
2023/05/30 12:12:21;;;;;;;3.42;1.73;;;23.60;44.80;;;;;;5036707;28;20411;-65
2023/05/30 12:14:49;;;;;;;2.08;1.50;;;23.60;44.80;;;;;;5035569;28;20064;-65
2023/05/30 12:17:20;;;;;;;2.88;1.50;;;23.60;44.80;;;;;;5021911;28;20030;-65
2023/05/30 12:19:46;;;;;;;2.33;1.40;;;23.60;44.80;;;;;;5017838;28;20037;-65
2023/05/30 12:22:13;;;;;;;1.77;1.30;;;23.60;44.80;;;;;;5035741;28;20480;-65
2023/05/30 12:24:38;;;;;;;2.38;1.50;;;23.60;44.80;;;;;;5034551;28;20029;-65
2023/05/30 12:27:16;;;;;;;2.13;1.40;;;23.60;44.80;;;;;;5036272;28;20029;-65
2023/05/30 12:29:42;;;;;;;3.03;1.30;;;23.60;44.80;;;;;;5016841;28;20369;-65
2023/05/30 12:32:08;;;;;;;2.13;1.33;;;23.60;44.80;;;;;;5032216;28;20037;-65
2023/05/30 12:34:43;;;;;;;2.65;1.52;;;23.60;44.70;;;;;;5020926;28;20037;-65
2023/05/30 12:37:14;;;;;;;3.00;1.40;;;23.60;44.70;;;;;;5029895;28;20051;-65
2023/05/30 12:39:51;;;;;;;2.28;1.50;;;23.60;44.70;;;;;;5018184;28;20467;-65
2023/05/30 12:42:25;;;;;;;2.13;1.50;;;23.60;44.70;;;;;;5036130;28;20029;-65
2023/05/30 12:44:57;;;;;;;2.83;1.63;;;23.60;44.70;;;;;;5035164;28;20061;-65
2023/05/30 12:47:25;;;;;;;2.25;1.40;;;23.60;44.70;;;;;;5034144;28;20543;-65
2023/05/30 12:49:51;;;;;;;2.38;1.48;;;23.60;44.70;;;;;;5038101;28;20021;-65
2023/05/30 12:52:22;;;;;;;2.00;1.40;;;23.60;44.70;;;;;;5037362;28;20026;-65